Aviation Digital Data Service (ADDS)

Output produced by METARs form (1025 UTC 19 February 2019)
found at http://www.aviationweather.gov/metar/data/
 
Forecast for: OEJN (JEDDAH/KING ABDU, SA)
Text: TAF OEJN 190500Z 1906/2012 36020KT 7000 FEW040
Forecast period: 0600 to 2000 UTC 19 February 2019
Forecast type: FROM: standard forecast or significant change
Winds: from the N (360 degrees) at 23 MPH (20 knots; 10.3 m/s)
Visibility: 4 miles (7 km)
Ceiling: at least 12,000 feet AGL
Clouds: few clouds at 4000 feet AGL
Weather: no significant weather forecast for this period
Text: BECMG 1920/1922 05020KT
Forecast period: 2000 UTC 19 February 2019 to 1200 UTC 20 February 2019
Forecast type: BECOMING: Conditions expected to become as follows by 2200 UTC 19 February 2019
Winds: from the NE (50 degrees) at 23 MPH (20 knots; 10.3 m/s)
Visibility: 4 miles (7 km)
Ceiling: at least 12,000 feet AGL
Clouds: few clouds at 4000 feet AGL
Weather: no significant weather forecast for this period